GLRB Airport Information

Runway Information
Runway 04 Length 11000 ft width 150 ft
Elevation 29 ft Threshold 0 ft Heading 31
Runway 22 Length 11000 ft Width 150 ft
Elevation 25 ft Threshold 1200 ft Heading 211
Airport Frequencies
Type A/G Name A/G VOICE Frequency 345.2 MHZ
Type APP Name ROBERTS AP Frequency 124.5 MHZ
Type GND Name GND Frequency 121.9 MHZ
Type TWR Name ROBERTS TW Frequency 118.3 MHZ
Airport Navaids
Type NDB Name Monrovia Roberts Frequency 263 KHZ
Type NDB Name Monrovia Roberts Frequency 372 KHZ
Type VOR-DME Name Monrovia Roberts Frequency 113800 KHZ
Airport Weather Information & NOTAM
ADDS - METARS form results

(0639 UTC 18 February 2020)
Data provider http://aviationweather.gov/metar/data/
 
METAR text: GLRB 180630Z 36006KT 0200 FG BKN001 OVC010 24/23 Q1011
Conditions at: GLRB (ROBERTS INTL/MON, LR) observed 0630 UTC 18 February 2020
Temperature: 24.0°C (75°F)
Dewpoint: 23.0°C (73°F) [RH = 94%]
Pressure (altimeter): 29.85 inches Hg (1011.0 mb)
Winds: from the N (360 degrees) at 7 MPH (6 knots; 3.1 m/s)
Visibility: 0.12 miles (0.19 km)
Ceiling: 100 feet AGL
Clouds: broken clouds at 100 feet AGL
overcast cloud deck at 1000 feet AGL
Weather: FG  (fog)

METAR text: GLRB 180600Z 01009KT 0200 FG BKN001 OVC010 24/23 Q1011
Conditions at: GLRB (ROBERTS INTL/MON, LR) observed 0600 UTC 18 February 2020
Temperature: 24.0°C (75°F)
Dewpoint: 23.0°C (73°F) [RH = 94%]
Pressure (altimeter): 29.85 inches Hg (1011.0 mb)
Winds: from the N (10 degrees) at 10 MPH (9 knots; 4.6 m/s)
Visibility: 0.12 miles (0.19 km)
Ceiling: 100 feet AGL
Clouds: broken clouds at 100 feet AGL
overcast cloud deck at 1000 feet AGL
Weather: FG  (fog)